^^
Atglen Weather Station Historical Data
 
Daily Summary for February 21, 2018 Units:  English    Metric   Both
Daily Weekly Monthly Yearly Custom
  Current: High: Low: Average:
Temperature: 69.6 °F 69.6 °F 56.3 °F 59.4 °F
Dew Point: 62.8 °F 62.8 °F 55.2 °F 57.7 °F
Humidity: 79% 97% 77% 94%
Wind Speed: 6.0mph 11.0mph 0.0mph 4mph
Wind Gust: 9.0mph 15.0mph - -
WindSW - - SSW
Pressure: 30.27 in 30.32 in 30.27 in -
Precipitation: 0.01 in      
Historical Graphs
 
 
Tabular Data for February 21, 2018
Time Temperature Dew Point Pressure Wind Wind Speed Wind Gust Humidity Rainfall Rate (Hourly) solar
00:03 57.6 °F 56.1 °F 30.32 in South 2.0 mph 7.0 mph 95% 0.00 in meteobridge W/m2
00:08 57.6 °F 56.1 °F 30.32 in SE 4.0 mph 5.0 mph 95% 0.00 in meteobridge W/m2
00:13 57.4 °F 55.9 °F 30.32 in SSE 2.9 mph 5.0 mph 95% 0.00 in meteobridge W/m2
00:18 57.6 °F 56.1 °F 30.31 in SSE 2.0 mph 5.0 mph 95% 0.00 in meteobridge W/m2
00:23 57.6 °F 56.1 °F 30.31 in SSE 2.0 mph 5.0 mph 95% 0.00 in meteobridge W/m2
00:28 57.6 °F 56.1 °F 30.31 in SSW 6.0 mph 8.0 mph 95% 0.00 in meteobridge W/m2
00:33 57.4 °F 55.9 °F 30.31 in South 2.0 mph 7.0 mph 95% 0.00 in meteobridge W/m2
00:38 57.4 °F 55.9 °F 30.31 in SSE 0.9 mph 3.0 mph 95% 0.00 in meteobridge W/m2
00:43 57.0 °F 55.6 °F 30.31 in South 2.9 mph 5.0 mph 95% 0.00 in meteobridge W/m2
00:48 56.8 °F 55.4 °F 30.31 in SSE 0.9 mph 2.0 mph 95% 0.00 in meteobridge W/m2
00:53 56.8 °F 55.4 °F 30.31 in South 2.0 mph 6.0 mph 95% 0.00 in meteobridge W/m2
00:58 56.7 °F 55.6 °F 30.30 in SSE 0.9 mph 3.0 mph 96% 0.00 in meteobridge W/m2
01:03 56.7 °F 55.6 °F 30.31 in Calm   4.0 mph 96% 0.00 in meteobridge W/m2
01:08 56.3 °F 55.2 °F 30.31 in SSW 4.0 mph 5.0 mph 96% 0.00 in meteobridge W/m2
01:13 56.5 °F 55.4 °F 30.31 in South 4.0 mph 6.0 mph 96% 0.01 in meteobridge W/m2
01:18 56.7 °F 55.6 °F 30.31 in South 0.9 mph 6.0 mph 96% 0.01 in meteobridge W/m2
01:23 56.8 °F 55.8 °F 30.31 in SW 4.9 mph 7.0 mph 96% 0.01 in meteobridge W/m2
01:28 57.0 °F 55.9 °F 30.31 in SW 6.9 mph 7.0 mph 96% 0.01 in meteobridge W/m2
01:33 57.2 °F 56.1 °F 30.31 in SSW 8.1 mph 8.1 mph 96% 0.01 in meteobridge W/m2
01:38 57.6 °F 56.7 °F 30.31 in SW 6.0 mph 11.0 mph 97% 0.01 in meteobridge W/m2
01:43 57.6 °F 56.7 °F 30.31 in SSW 4.9 mph 12.0 mph 97% 0.01 in meteobridge W/m2
01:48 57.4 °F 56.5 °F 30.31 in South 4.9 mph 10.0 mph 97% 0.01 in meteobridge W/m2
01:53 57.6 °F 56.7 °F 30.31 in SSE 2.0 mph 7.0 mph 97% 0.01 in meteobridge W/m2
01:59 57.6 °F 56.7 °F 30.30 in SSE 4.0 mph 7.0 mph 97% 0.01 in meteobridge W/m2
02:04 57.6 °F 56.7 °F 30.30 in SSE 4.9 mph 11.0 mph 97% 0.01 in meteobridge W/m2
02:09 57.6 °F 56.7 °F 30.30 in SSW 4.0 mph 9.0 mph 97% 0.01 in meteobridge W/m2
02:14 57.6 °F 56.7 °F 30.30 in South 2.9 mph 7.0 mph 97% 0.00 in meteobridge W/m2
02:19 57.6 °F 56.7 °F 30.30 in SW 2.0 mph 4.0 mph 97% 0.00 in meteobridge W/m2
02:24 57.6 °F 56.7 °F 30.30 in SW 4.0 mph 6.0 mph 97% 0.00 in meteobridge W/m2
02:29 57.6 °F 56.7 °F 30.30 in SSE 4.9 mph 7.0 mph 97% 0.00 in meteobridge W/m2
02:34 57.6 °F 56.7 °F 30.29 in South 2.9 mph 4.0 mph 97% 0.00 in meteobridge W/m2
02:39 57.6 °F 56.7 °F 30.29 in SSW 2.9 mph 6.0 mph 97% 0.00 in meteobridge W/m2
02:44 57.6 °F 56.7 °F 30.29 in SW 4.0 mph 6.0 mph 97% 0.00 in meteobridge W/m2
02:49 57.6 °F 56.7 °F 30.29 in SSW 2.9 mph 5.0 mph 97% 0.00 in meteobridge W/m2
02:54 57.7 °F 56.8 °F 30.29 in SW 6.0 mph 8.0 mph 97% 0.00 in meteobridge W/m2
02:59 57.6 °F 56.7 °F 30.29 in WSW 2.9 mph 3.0 mph 97% 0.00 in meteobridge W/m2
03:04 57.6 °F 56.7 °F 30.29 in SSW 2.0 mph 4.0 mph 97% 0.00 in meteobridge W/m2
03:09 57.6 °F 56.7 °F 30.29 in WSW 0.9 mph 3.0 mph 97% 0.00 in meteobridge W/m2
03:14 57.6 °F 56.7 °F 30.29 in SSW 2.0 mph 5.0 mph 97% 0.00 in meteobridge W/m2
03:19 57.6 °F 56.7 °F 30.29 in SW 2.0 mph 7.0 mph 97% 0.00 in meteobridge W/m2
03:24 57.7 °F 56.8 °F 30.29 in SSW 4.0 mph 5.0 mph 97% 0.00 in meteobridge W/m2
03:29 57.7 °F 56.8 °F 30.29 in South 2.0 mph 4.0 mph 97% 0.00 in meteobridge W/m2
03:34 57.7 °F 56.8 °F 30.29 in SSW 2.9 mph 6.0 mph 97% 0.00 in meteobridge W/m2
03:39 57.7 °F 56.8 °F 30.29 in SSW 2.9 mph 8.0 mph 97% 0.00 in meteobridge W/m2
03:44 57.7 °F 56.8 °F 30.29 in SSW 4.9 mph 6.0 mph 97% 0.00 in meteobridge W/m2
03:49 57.7 °F 56.8 °F 30.29 in SW 6.0 mph 8.0 mph 97% 0.00 in meteobridge W/m2
03:54 57.7 °F 56.8 °F 30.29 in WSW 2.0 mph 5.0 mph 97% 0.00 in meteobridge W/m2
03:59 57.7 °F 56.8 °F 30.29 in Calm   8.0 mph 97% 0.00 in meteobridge W/m2
04:04 57.7 °F 56.8 °F 30.29 in SSW 2.9 mph 5.0 mph 97% 0.00 in meteobridge W/m2
04:09 57.7 °F 56.8 °F 30.29 in SSW 0.9 mph 4.0 mph 97% 0.00 in meteobridge W/m2
04:14 57.7 °F 56.8 °F 30.29 in SSW 2.9 mph 7.0 mph 97% 0.00 in meteobridge W/m2
04:20 57.7 °F 56.8 °F 30.29 in SW 4.9 mph 7.0 mph 97% 0.00 in meteobridge W/m2
04:25 57.7 °F 56.8 °F 30.29 in SSW 2.9 mph 7.0 mph 97% 0.00 in meteobridge W/m2
04:30 57.7 °F 56.8 °F 30.29 in SSE 2.0 mph 4.0 mph 97% 0.00 in meteobridge W/m2
04:35 57.7 °F 56.8 °F 30.29 in SSW 2.9 mph 8.0 mph 97% 0.00 in meteobridge W/m2
04:40 57.7 °F 56.8 °F 30.29 in SSE 4.9 mph 6.0 mph 97% 0.00 in meteobridge W/m2
04:45 57.7 °F 56.8 °F 30.29 in SSW 4.0 mph 7.0 mph 97% 0.00 in meteobridge W/m2
04:50 57.7 °F 56.8 °F 30.29 in SSW 2.9 mph 8.0 mph 97% 0.00 in meteobridge W/m2
04:55 57.7 °F 56.8 °F 30.29 in SW 2.0 mph 7.0 mph 97% 0.00 in meteobridge W/m2
05:00 57.7 °F 56.8 °F 30.29 in SSW 2.9 mph 5.0 mph 97% 0.00 in meteobridge W/m2
05:05 57.7 °F 56.8 °F 30.29 in SW 0.9 mph 7.0 mph 97% 0.00 in meteobridge W/m2
05:10 57.7 °F 56.8 °F 30.29 in SSW 4.0 mph 5.0 mph 97% 0.00 in meteobridge W/m2
05:15 57.7 °F 56.8 °F 30.29 in WSW 6.0 mph 15.0 mph 97% 0.00 in meteobridge W/m2
05:20 57.7 °F 56.8 °F 30.29 in South 2.0 mph 6.0 mph 97% 0.00 in meteobridge W/m2
05:25 57.7 °F 56.8 °F 30.29 in SSW 2.9 mph 7.0 mph 97% 0.00 in meteobridge W/m2
05:30 57.7 °F 56.8 °F 30.29 in SSW 4.0 mph 10.0 mph 97% 0.00 in meteobridge W/m2
05:35 57.7 °F 56.8 °F 30.29 in SW 2.9 mph 3.0 mph 97% 0.00 in meteobridge W/m2
05:40 57.7 °F 56.8 °F 30.29 in South 0.9 mph 7.0 mph 97% 0.00 in meteobridge W/m2
05:45 57.7 °F 56.8 °F 30.29 in Calm   4.0 mph 97% 0.00 in meteobridge W/m2
05:50 57.7 °F 56.8 °F 30.29 in SW 0.9 mph 7.0 mph 97% 0.00 in meteobridge W/m2
05:55 57.7 °F 56.8 °F 30.29 in South 2.0 mph 3.0 mph 97% 0.00 in meteobridge W/m2
06:00 57.7 °F 56.8 °F 30.29 in SW 2.0 mph 5.0 mph 97% 0.00 in meteobridge W/m2
06:05 57.7 °F 56.8 °F 30.30 in SSW 2.9 mph 4.0 mph 97% 0.00 in meteobridge W/m2
06:10 57.7 °F 56.8 °F 30.30 in South 2.0 mph 2.0 mph 97% 0.00 in meteobridge W/m2
06:15 57.7 °F 56.8 °F 30.30 in SSW 4.0 mph 6.0 mph 97% 0.00 in meteobridge W/m2
06:20 57.7 °F 56.8 °F 30.30 in SSW 6.0 mph 6.0 mph 97% 0.00 in meteobridge W/m2
06:25 57.9 °F 57.0 °F 30.30 in SW 4.0 mph 7.0 mph 97% 0.00 in meteobridge W/m2
06:30 57.9 °F 57.0 °F 30.29 in SW 2.0 mph 5.0 mph 97% 0.00 in meteobridge W/m2
06:36 57.9 °F 57.0 °F 30.30 in SW 2.0 mph 10.0 mph 97% 0.00 in meteobridge W/m2
06:41 57.9 °F 57.0 °F 30.30 in South 2.9 mph 6.0 mph 97% 0.00 in meteobridge W/m2
06:46 57.7 °F 56.8 °F 30.30 in SSW 4.9 mph 6.0 mph 97% 0.00 in meteobridge W/m2
06:51 57.7 °F 56.8 °F 30.30 in South 2.9 mph 8.0 mph 97% 0.00 in meteobridge W/m2
06:56 57.7 °F 56.8 °F 30.30 in South 2.0 mph 5.0 mph 97% 0.00 in meteobridge W/m2
07:01 57.7 °F 56.8 °F 30.30 in SSW 6.9 mph 7.0 mph 97% 0.00 in meteobridge W/m2
07:06 57.6 °F 56.7 °F 30.29 in SSW 4.0 mph 4.0 mph 97% 0.00 in meteobridge W/m2
07:11 57.6 °F 56.7 °F 30.29 in SSW 4.0 mph 4.0 mph 97% 0.00 in meteobridge W/m2
07:16 57.6 °F 56.7 °F 30.29 in SSE 4.9 mph 5.0 mph 97% 0.00 in meteobridge W/m2
07:21 57.6 °F 56.7 °F 30.29 in SW 6.0 mph 9.0 mph 97% 0.00 in meteobridge W/m2
07:26 57.7 °F 56.8 °F 30.30 in SSW 2.9 mph 9.0 mph 97% 0.00 in meteobridge W/m2
07:31 57.7 °F 56.8 °F 30.30 in SSW 4.9 mph 9.0 mph 97% 0.00 in meteobridge W/m2
07:36 57.7 °F 56.8 °F 30.30 in South 2.9 mph 10.0 mph 97% 0.00 in meteobridge W/m2
07:41 57.9 °F 57.0 °F 30.30 in SW 6.9 mph 7.0 mph 97% 0.00 in meteobridge W/m2
07:46 57.9 °F 57.0 °F 30.30 in SW 4.0 mph 9.0 mph 97% 0.00 in meteobridge W/m2
07:51 58.1 °F 57.2 °F 30.30 in SSW 8.9 mph 9.0 mph 97% 0.00 in meteobridge W/m2
07:56 58.3 °F 57.4 °F 30.30 in SSW 2.9 mph 8.0 mph 97% 0.00 in meteobridge W/m2
08:01 58.3 °F 57.4 °F 30.30 in SW 8.1 mph 8.1 mph 97% 0.00 in meteobridge W/m2
08:06 58.5 °F 57.6 °F 30.30 in South 8.1 mph 12.0 mph 97% 0.00 in meteobridge W/m2
08:11 58.5 °F 57.6 °F 30.30 in SW 4.9 mph 6.0 mph 97% 0.00 in meteobridge W/m2
08:16 58.5 °F 57.6 °F 30.30 in South 11.0 mph 11.0 mph 97% 0.00 in meteobridge W/m2
08:21 58.6 °F 57.7 °F 30.30 in SSW 4.9 mph 10.0 mph 97% 0.00 in meteobridge W/m2
08:26 58.6 °F 57.7 °F 30.30 in SSW 6.0 mph 7.0 mph 97% 0.00 in meteobridge W/m2
08:31 58.8 °F 57.9 °F 30.30 in SW 6.9 mph 9.0 mph 97% 0.00 in meteobridge W/m2
08:36 59.0 °F 58.1 °F 30.30 in SW 10.1 mph 10.1 mph 97% 0.00 in meteobridge W/m2
08:41 59.2 °F 58.3 °F 30.30 in SW 4.0 mph 8.0 mph 97% 0.00 in meteobridge W/m2
08:47 59.4 °F 58.5 °F 30.30 in SSW 4.0 mph 6.0 mph 97% 0.00 in meteobridge W/m2
08:52 59.5 °F 58.5 °F 30.30 in SW 4.9 mph 9.0 mph 96% 0.00 in meteobridge W/m2
08:57 59.7 °F 58.6 °F 30.31 in South 4.9 mph 13.0 mph 96% 0.00 in meteobridge W/m2
09:02 59.7 °F 58.6 °F 30.31 in SSW 2.9 mph 10.0 mph 96% 0.00 in meteobridge W/m2
09:07 60.1 °F 58.6 °F 30.31 in SW 4.9 mph 6.0 mph 95% 0.00 in meteobridge W/m2
09:12 60.1 °F 58.6 °F 30.31 in SW 4.9 mph 10.0 mph 95% 0.00 in meteobridge W/m2
09:17 60.4 °F 59.0 °F 30.31 in WSW 4.0 mph 8.0 mph 95% 0.00 in meteobridge W/m2
09:22 60.4 °F 58.6 °F 30.31 in SSW 8.1 mph 13.0 mph 94% 0.00 in meteobridge W/m2
09:27 60.4 °F 58.6 °F 30.30 in SSW 2.9 mph 4.0 mph 94% 0.00 in meteobridge W/m2
09:32 60.8 °F 59.0 °F 30.30 in SSW 4.9 mph 6.0 mph 94% 0.00 in meteobridge W/m2
09:37 61.0 °F 59.2 °F 30.30 in South 8.1 mph 11.0 mph 94% 0.00 in meteobridge W/m2
09:42 61.0 °F 59.0 °F 30.30 in SSW 6.9 mph 9.0 mph 93% 0.00 in meteobridge W/m2
09:47 61.2 °F 59.2 °F 30.30 in SSW 4.0 mph 9.0 mph 93% 0.00 in meteobridge W/m2
09:52 61.2 °F 58.8 °F 30.30 in SSE 10.1 mph 15.0 mph 92% 0.00 in meteobridge W/m2
09:57 61.3 °F 59.4 °F 30.30 in SW 4.0 mph 12.0 mph 93% 0.00 in meteobridge W/m2
10:02 61.5 °F 59.2 °F 30.30 in SW 4.9 mph 11.0 mph 92% 0.00 in meteobridge W/m2
10:07 61.9 °F 59.5 °F 30.29 in SSE 10.1 mph 10.1 mph 92% 0.00 in meteobridge W/m2
10:12 62.2 °F 59.9 °F 30.29 in SSW 2.0 mph 9.0 mph 92% 0.00 in meteobridge W/m2
10:17 62.8 °F 60.1 °F 30.29 in SSW 2.0 mph 7.0 mph 91% 0.00 in meteobridge W/m2
10:22 63.1 °F 59.9 °F 30.29 in SW 4.9 mph 9.0 mph 89% 0.00 in meteobridge W/m2
10:27 63.7 °F 60.4 °F 30.30 in SW 6.0 mph 14.0 mph 89% 0.00 in meteobridge W/m2
10:32 64.6 °F 61.3 °F 30.29 in West 2.9 mph 4.0 mph 89% 0.00 in meteobridge W/m2
10:37 65.1 °F 61.2 °F 30.29 in SSW 4.9 mph 15.0 mph 87% 0.00 in meteobridge W/m2
10:42 65.7 °F 61.3 °F 30.29 in Calm   9.0 mph 86% 0.00 in meteobridge W/m2
10:47 65.8 °F 60.8 °F 30.29 in SW 4.9 mph 14.0 mph 84% 0.00 in meteobridge W/m2
10:52 66.0 °F 61.3 °F 30.29 in SSW 8.1 mph 10.0 mph 85% 0.00 in meteobridge W/m2
10:58 66.0 °F 61.0 °F 30.29 in SW 2.9 mph 11.0 mph 84% 0.00 in meteobridge W/m2
11:03 65.7 °F 61.0 °F 30.29 in SW 2.0 mph 8.0 mph 85% 0.00 in meteobridge W/m2
11:08 65.8 °F 61.2 °F 30.28 in SSW 6.9 mph 11.0 mph 85% 0.00 in meteobridge W/m2
11:13 66.7 °F 61.7 °F 30.28 in WSW 2.9 mph 10.0 mph 84% 0.00 in meteobridge W/m2
11:18 67.5 °F 61.7 °F 30.28 in SSW 6.9 mph 8.0 mph 82% 0.00 in meteobridge W/m2
11:23 68.4 °F 62.6 °F 30.28 in SSW 2.0 mph 9.0 mph 82% 0.00 in meteobridge W/m2
11:28 69.3 °F 62.4 °F 30.28 in SSW 10.1 mph 10.1 mph 79% 0.00 in meteobridge W/m2
11:33 69.1 °F 62.2 °F 30.28 in South 4.0 mph 10.0 mph 79% 0.00 in meteobridge W/m2
11:38 68.5 °F 61.7 °F 30.28 in West 6.9 mph 11.0 mph 79% 0.00 in meteobridge W/m2
11:43 68.7 °F 62.2 °F 30.27 in SW 4.0 mph 4.0 mph 80% 0.00 in meteobridge W/m2
11:48 69.4 °F 62.6 °F 30.27 in SSW 6.9 mph 9.0 mph 79% 0.00 in meteobridge W/m2
11:53 69.6 °F 62.1 °F 30.27 in SSW 8.1 mph 11.0 mph 77% 0.00 in meteobridge W/m2
11:58 69.6 °F 62.8 °F 30.27 in SW 6.0 mph 9.0 mph 79% 0.00 in meteobridge W/m2
Atglen Borough, Pennsylvania, USA
Compliments of Weather Underground - 2.75 mb